sensor_id;sensor_type;location;lat;lon;timestamp;pressure;altitude;pressure_sealevel;temperature;humidity
41140;BME280;26881;48.784;9.192;2023-04-01T00:00:20;97252.75;;;10.24;75.34
41140;BME280;26881;48.784;9.192;2023-04-01T00:05:42;97244.22;;;10.22;76.33
41140;BME280;26881;48.784;9.192;2023-04-01T00:11:04;97258.94;;;10.34;75.55
41140;BME280;26881;48.784;9.192;2023-04-01T00:16:26;97247.63;;;10.23;75.76
41140;BME280;26881;48.784;9.192;2023-04-01T00:21:48;97249.69;;;10.30;77.22
41140;BME280;26881;48.784;9.192;2023-04-01T00:27:10;97244.94;;;10.36;77.24
41140;BME280;26881;48.784;9.192;2023-04-01T00:32:32;97252.44;;;10.29;76.55
41140;BME280;26881;48.784;9.192;2023-04-01T00:37:53;97242.56;;;10.21;77.21
41140;BME280;26881;48.784;9.192;2023-04-01T00:43:18;97258.22;;;10.21;78.24
41140;BME280;26881;48.784;9.192;2023-04-01T00:48:47;97266.06;;;10.32;76.79
41140;BME280;26881;48.784;9.192;2023-04-01T00:54:10;97262.88;;;10.29;78.13
41140;BME280;26881;48.784;9.192;2023-04-01T00:59:35;97260.16;;;10.30;79.11
41140;BME280;26881;48.784;9.192;2023-04-01T01:05:00;97264.16;;;10.34;79.70
41140;BME280;26881;48.784;9.192;2023-04-01T01:10:26;97260.59;;;10.47;79.41
41140;BME280;26881;48.784;9.192;2023-04-01T01:16:14;97256.44;;;10.22;79.89
41140;BME280;26881;48.784;9.192;2023-04-01T01:22:00;97249.19;;;10.25;81.01
41140;BME280;26881;48.784;9.192;2023-04-01T01:27:27;97245.38;;;10.18;79.99
41140;BME280;26881;48.784;9.192;2023-04-01T01:33:10;97249.56;;;10.32;79.85
41140;BME280;26881;48.784;9.192;2023-04-01T01:38:35;97247.78;;;10.32;80.08
41140;BME280;26881;48.784;9.192;2023-04-01T01:43:59;97255.97;;;10.39;79.34
41140;BME280;26881;48.784;9.192;2023-04-01T01:49:24;97254.88;;;10.42;80.18
41140;BME280;26881;48.784;9.192;2023-04-01T01:54:51;97248.47;;;10.34;81.15
41140;BME280;26881;48.784;9.192;2023-04-01T02:00:14;97247.78;;;10.21;82.50
41140;BME280;26881;48.784;9.192;2023-04-01T02:05:36;97242.56;;;10.21;83.58
41140;BME280;26881;48.784;9.192;2023-04-01T02:11:02;97240.53;;;10.13;84.04
41140;BME280;26881;48.784;9.192;2023-04-01T02:16:54;97243.50;;;10.09;83.23
41140;BME280;26881;48.784;9.192;2023-04-01T02:22:29;97252.88;;;10.11;83.07
41140;BME280;26881;48.784;9.192;2023-04-01T02:27:53;97244.94;;;10.13;83.13
41140;BME280;26881;48.784;9.192;2023-04-01T02:33:16;97257.38;;;10.21;82.50
41140;BME280;26881;48.784;9.192;2023-04-01T02:38:39;97247.78;;;10.10;82.89
41140;BME280;26881;48.784;9.192;2023-04-01T02:44:01;97246.00;;;10.10;83.00
41140;BME280;26881;48.784;9.192;2023-04-01T02:49:23;97248.41;;;10.02;82.53
41140;BME280;26881;48.784;9.192;2023-04-01T02:54:44;97258.25;;;9.99;80.67
41140;BME280;26881;48.784;9.192;2023-04-01T03:00:07;97257.28;;;10.11;79.32
41140;BME280;26881;48.784;9.192;2023-04-01T03:05:32;97248.16;;;10.05;80.58
41140;BME280;26881;48.784;9.192;2023-04-01T03:10:54;97253.47;;;10.04;79.66
41140;BME280;26881;48.784;9.192;2023-04-01T03:16:16;97250.50;;;10.08;79.58
41140;BME280;26881;48.784;9.192;2023-04-01T03:21:38;97255.63;;;9.99;79.80
41140;BME280;26881;48.784;9.192;2023-04-01T03:27:00;97255.03;;;9.95;79.44
41140;BME280;26881;48.784;9.192;2023-04-01T03:32:21;97255.41;;;9.79;80.63
41140;BME280;26881;48.784;9.192;2023-04-01T03:37:43;97262.16;;;9.82;78.62
41140;BME280;26881;48.784;9.192;2023-04-01T03:43:05;97255.03;;;9.84;79.45
41140;BME280;26881;48.784;9.192;2023-04-01T03:48:29;97255.03;;;9.84;78.99
41140;BME280;26881;48.784;9.192;2023-04-01T03:53:52;97258.00;;;9.79;80.29
41140;BME280;26881;48.784;9.192;2023-04-01T03:59:14;97246.25;;;9.85;78.90
41140;BME280;26881;48.784;9.192;2023-04-01T04:04:35;97243.16;;;9.80;77.11
41140;BME280;26881;48.784;9.192;2023-04-01T04:09:57;97231.66;;;9.82;76.77
41140;BME280;26881;48.784;9.192;2023-04-01T04:15:19;97238.53;;;9.83;77.21
41140;BME280;26881;48.784;9.192;2023-04-01T04:20:47;97232.47;;;9.83;75.69
41140;BME280;26881;48.784;9.192;2023-04-01T04:26:14;97238.66;;;9.82;75.96
41140;BME280;26881;48.784;9.192;2023-04-01T04:31:36;97231.19;;;9.77;74.88
41140;BME280;26881;48.784;9.192;2023-04-01T04:36:57;97229.97;;;9.81;75.26
41140;BME280;26881;48.784;9.192;2023-04-01T04:42:19;97239.84;;;9.78;75.20
41140;BME280;26881;48.784;9.192;2023-04-01T04:47:41;97237.47;;;9.63;76.24
41140;BME280;26881;48.784;9.192;2023-04-01T04:53:03;97235.09;;;9.49;75.83
41140;BME280;26881;48.784;9.192;2023-04-01T04:58:25;97227.13;;;9.50;76.53
41140;BME280;26881;48.784;9.192;2023-04-01T05:03:46;97219.53;;;9.59;78.14
41140;BME280;26881;48.784;9.192;2023-04-01T05:09:08;97218.94;;;9.55;77.45
41140;BME280;26881;48.784;9.192;2023-04-01T05:14:30;97215.03;;;9.61;78.11
41140;BME280;26881;48.784;9.192;2023-04-01T05:19:52;97221.91;;;9.73;77.32
41140;BME280;26881;48.784;9.192;2023-04-01T05:25:14;97206.72;;;9.67;77.05
41140;BME280;26881;48.784;9.192;2023-04-01T05:30:35;97207.69;;;9.77;76.55
41140;BME280;26881;48.784;9.192;2023-04-01T05:36:06;97206.16;;;9.75;77.99
41140;BME280;26881;48.784;9.192;2023-04-01T05:41:27;97198.88;;;9.78;77.51
41140;BME280;26881;48.784;9.192;2023-04-01T05:46:49;97194.75;;;9.87;76.63
41140;BME280;26881;48.784;9.192;2023-04-01T05:52:11;97191.16;;;9.88;76.67
41140;BME280;26881;48.784;9.192;2023-04-01T05:57:33;97202.31;;;9.90;77.00
41140;BME280;26881;48.784;9.192;2023-04-01T06:02:58;97201.84;;;9.96;76.32
41140;BME280;26881;48.784;9.192;2023-04-01T06:08:21;97177.63;;;10.05;75.52
41140;BME280;26881;48.784;9.192;2023-04-01T06:14:00;97175.09;;;10.15;73.80
41140;BME280;26881;48.784;9.192;2023-04-01T06:20:19;97170.69;;;10.27;72.48
41140;BME280;26881;48.784;9.192;2023-04-01T06:31:38;97173.22;;;10.28;71.94
41140;BME280;26881;48.784;9.192;2023-04-01T06:48:26;97190.84;;;10.47;71.82
41140;BME280;26881;48.784;9.192;2023-04-01T06:54:04;97178.34;;;10.51;71.13
41140;BME280;26881;48.784;9.192;2023-04-01T06:59:30;97183.88;;;10.37;69.89
41140;BME280;26881;48.784;9.192;2023-04-01T07:04:55;97185.97;;;10.54;71.01
41140;BME280;26881;48.784;9.192;2023-04-01T07:10:32;97184.25;;;10.64;70.87
41140;BME280;26881;48.784;9.192;2023-04-01T07:16:18;97181.75;;;10.63;70.77
41140;BME280;26881;48.784;9.192;2023-04-01T07:21:49;97195.19;;;10.58;71.86
41140;BME280;26881;48.784;9.192;2023-04-01T07:27:13;97198.03;;;10.66;71.46
41140;BME280;26881;48.784;9.192;2023-04-01T07:32:50;97201.38;;;10.57;73.60
41140;BME280;26881;48.784;9.192;2023-04-01T07:38:40;97207.28;;;10.70;71.44
41140;BME280;26881;48.784;9.192;2023-04-01T07:50:05;97204.22;;;10.65;72.20
41140;BME280;26881;48.784;9.192;2023-04-01T07:55:50;97217.22;;;10.76;71.59
41140;BME280;26881;48.784;9.192;2023-04-01T08:01:29;97202.63;;;10.74;71.47
41140;BME280;26881;48.784;9.192;2023-04-01T08:07:05;97200.78;;;10.86;71.04
41140;BME280;26881;48.784;9.192;2023-04-01T08:23:52;97213.38;;;10.92;70.68
41140;BME280;26881;48.784;9.192;2023-04-01T08:29:26;97210.75;;;10.92;71.80
41140;BME280;26881;48.784;9.192;2023-04-01T08:40:57;97228.09;;;10.93;73.48
41140;BME280;26881;48.784;9.192;2023-04-01T08:46:34;97230.16;;;10.89;74.42
41140;BME280;26881;48.784;9.192;2023-04-01T08:52:07;97221.97;;;10.83;77.04
41140;BME280;26881;48.784;9.192;2023-04-01T08:57:39;97223.19;;;10.67;78.82
41140;BME280;26881;48.784;9.192;2023-04-01T09:26:00;97218.94;;;10.66;79.06
41140;BME280;26881;48.784;9.192;2023-04-01T09:49:13;97231.81;;;11.11;76.21
41140;BME280;26881;48.784;9.192;2023-04-01T10:12:31;97247.56;;;11.00;73.15
41140;BME280;26881;48.784;9.192;2023-04-01T10:18:37;97257.19;;;11.00;73.49
41140;BME280;26881;48.784;9.192;2023-04-01T10:24:44;97255.25;;;11.13;74.15
41140;BME280;26881;48.784;9.192;2023-04-01T10:30:20;97240.69;;;11.20;71.93
41140;BME280;26881;48.784;9.192;2023-04-01T11:16:30;97243.31;;;11.41;69.46
41140;BME280;26881;48.784;9.192;2023-04-01T11:28:07;97260.53;;;11.65;67.53
41140;BME280;26881;48.784;9.192;2023-04-01T11:33:54;97249.00;;;11.77;67.66
41140;BME280;26881;48.784;9.192;2023-04-01T11:45:15;97264.66;;;12.19;66.78
41140;BME280;26881;48.784;9.192;2023-04-01T11:56:53;97276.78;;;12.10;64.29
41140;BME280;26881;48.784;9.192;2023-04-01T12:02:28;97293.03;;;12.04;66.58
41140;BME280;26881;48.784;9.192;2023-04-01T12:13:39;97285.75;;;11.87;67.17
41140;BME280;26881;48.784;9.192;2023-04-01T12:19:17;97296.31;;;11.75;67.95
41140;BME280;26881;48.784;9.192;2023-04-01T12:36:25;97299.50;;;11.79;72.20
41140;BME280;26881;48.784;9.192;2023-04-01T12:42:07;97303.47;;;11.94;71.79
41140;BME280;26881;48.784;9.192;2023-04-01T12:48:06;97299.50;;;12.00;69.45
41140;BME280;26881;48.784;9.192;2023-04-01T13:10:51;97317.53;;;12.24;65.07
41140;BME280;26881;48.784;9.192;2023-04-01T13:16:29;97314.75;;;12.16;65.00
41140;BME280;26881;48.784;9.192;2023-04-01T13:27:40;97318.97;;;12.07;65.04
41140;BME280;26881;48.784;9.192;2023-04-01T13:56:28;97354.50;;;12.00;63.49
41140;BME280;26881;48.784;9.192;2023-04-01T14:07:48;97351.00;;;12.11;63.71
41140;BME280;26881;48.784;9.192;2023-04-01T14:13:26;97361.59;;;12.09;63.83
41140;BME280;26881;48.784;9.192;2023-04-01T14:19:23;97364.59;;;12.05;63.87
41140;BME280;26881;48.784;9.192;2023-04-01T14:43:10;97369.47;;;11.88;68.72
41140;BME280;26881;48.784;9.192;2023-04-01T14:48:25;97366.38;;;11.83;67.55
41140;BME280;26881;48.784;9.192;2023-04-01T14:54:02;97376.41;;;11.78;68.45
41140;BME280;26881;48.784;9.192;2023-04-01T15:04:58;97380.31;;;11.84;67.25
41140;BME280;26881;48.784;9.192;2023-04-01T15:10:58;97381.75;;;11.88;65.91
41140;BME280;26881;48.784;9.192;2023-04-01T15:28:38;97407.56;;;11.92;64.95
41140;BME280;26881;48.784;9.192;2023-04-01T15:34:24;97401.63;;;11.90;65.39
41140;BME280;26881;48.784;9.192;2023-04-01T15:56:53;97417.13;;;11.82;66.35
41140;BME280;26881;48.784;9.192;2023-04-01T16:02:31;97419.97;;;11.90;66.34
41140;BME280;26881;48.784;9.192;2023-04-01T16:13:59;97428.16;;;11.86;65.45
41140;BME280;26881;48.784;9.192;2023-04-01T16:19:37;97433.78;;;11.81;65.69
41140;BME280;26881;48.784;9.192;2023-04-01T16:25:17;97444.47;;;11.68;65.75
41140;BME280;26881;48.784;9.192;2023-04-01T16:30:48;97442.63;;;11.80;64.82
41140;BME280;26881;48.784;9.192;2023-04-01T16:36:36;97454.03;;;11.79;64.75
41140;BME280;26881;48.784;9.192;2023-04-01T16:47:30;97454.16;;;11.56;65.94
41140;BME280;26881;48.784;9.192;2023-04-01T16:58:26;97456.38;;;11.61;66.45
41140;BME280;26881;48.784;9.192;2023-04-01T17:03:57;97459.03;;;11.50;67.62
41140;BME280;26881;48.784;9.192;2023-04-01T17:09:30;97455.72;;;11.48;68.15
41140;BME280;26881;48.784;9.192;2023-04-01T17:26:50;97469.41;;;11.72;67.21
41140;BME280;26881;48.784;9.192;2023-04-01T17:37:55;97479.81;;;11.63;66.89
41140;BME280;26881;48.784;9.192;2023-04-01T17:43:41;97484.72;;;11.56;68.49
41140;BME280;26881;48.784;9.192;2023-04-01T17:49:26;97504.59;;;11.58;67.40
41140;BME280;26881;48.784;9.192;2023-04-01T18:06:29;97530.00;;;11.35;72.74
41140;BME280;26881;48.784;9.192;2023-04-01T18:12:06;97547.00;;;11.30;73.48
41140;BME280;26881;48.784;9.192;2023-04-01T18:17:44;97557.97;;;11.24;75.50
41140;BME280;26881;48.784;9.192;2023-04-01T18:29:40;97554.59;;;10.76;82.29
41140;BME280;26881;48.784;9.192;2023-04-01T18:41:21;97561.50;;;10.78;82.00
41140;BME280;26881;48.784;9.192;2023-04-01T18:46:53;97569.94;;;10.92;79.07
41140;BME280;26881;48.784;9.192;2023-04-01T18:52:33;97581.00;;;10.85;77.41
41140;BME280;26881;48.784;9.192;2023-04-01T18:58:24;97588.38;;;10.80;76.55
41140;BME280;26881;48.784;9.192;2023-04-01T19:09:29;97600.72;;;10.66;74.74
41140;BME280;26881;48.784;9.192;2023-04-01T19:25:58;97600.63;;;10.44;73.51
41140;BME280;26881;48.784;9.192;2023-04-01T19:31:44;97601.19;;;10.36;74.79
41140;BME280;26881;48.784;9.192;2023-04-01T19:37:47;97602.75;;;10.39;74.68
41140;BME280;26881;48.784;9.192;2023-04-01T19:54:35;97612.97;;;10.18;75.14
41140;BME280;26881;48.784;9.192;2023-04-01T20:00:26;97628.88;;;10.15;75.55
41140;BME280;26881;48.784;9.192;2023-04-01T20:17:20;97640.88;;;10.17;75.66
41140;BME280;26881;48.784;9.192;2023-04-01T20:28:12;97650.53;;;10.41;74.29
41140;BME280;26881;48.784;9.192;2023-04-01T20:50:50;97675.28;;;10.48;73.20
41140;BME280;26881;48.784;9.192;2023-04-01T20:56:21;97677.88;;;10.48;73.02
41140;BME280;26881;48.784;9.192;2023-04-01T21:02:20;97672.06;;;10.44;73.07
41140;BME280;26881;48.784;9.192;2023-04-01T21:36:52;97694.34;;;10.37;74.72
41140;BME280;26881;48.784;9.192;2023-04-01T21:54:21;97711.53;;;10.52;74.07
41140;BME280;26881;48.784;9.192;2023-04-01T22:00:14;97718.31;;;10.55;73.94
41140;BME280;26881;48.784;9.192;2023-04-01T22:06:00;97715.97;;;10.39;73.98
41140;BME280;26881;48.784;9.192;2023-04-01T22:11:57;97720.59;;;10.36;73.85
41140;BME280;26881;48.784;9.192;2023-04-01T22:17:32;97729.00;;;10.15;74.12
41140;BME280;26881;48.784;9.192;2023-04-01T22:23:14;97720.19;;;10.16;74.47
41140;BME280;26881;48.784;9.192;2023-04-01T22:34:20;97734.28;;;10.26;71.99
41140;BME280;26881;48.784;9.192;2023-04-01T22:41:01;97745.06;;;10.22;72.42
41140;BME280;26881;48.784;9.192;2023-04-01T22:46:01;97740.34;;;10.27;71.87
41140;BME280;26881;48.784;9.192;2023-04-01T22:51:48;97749.84;;;10.28;72.49
41140;BME280;26881;48.784;9.192;2023-04-01T23:03:19;97753.25;;;10.04;74.01
41140;BME280;26881;48.784;9.192;2023-04-01T23:19:47;97765.66;;;10.13;72.49
41140;BME280;26881;48.784;9.192;2023-04-01T23:36:14;97781.66;;;10.09;72.59
41140;BME280;26881;48.784;9.192;2023-04-01T23:41:37;97782.41;;;10.11;72.68
41140;BME280;26881;48.784;9.192;2023-04-01T23:46:59;97798.53;;;10.05;72.62
41140;BME280;26881;48.784;9.192;2023-04-01T23:52:27;97797.38;;;9.96;73.75
